Time;durP1;ratioP1;P1;durP2;ratioP2;P2;SDS_P1;SDS_P2;PMS_P1;PMS_P2;Temp;Humidity;BMP_temperature;BMP_pressure;BME280_temperature;BME280_humidity;BME280_pressure;Samples;Min_cycle;Max_cycle;Signal;HPM_P1;HPM_P2
2023/08/22 00:00:33;;;;;;;7.20;3.60;;;;;;;;;;5051387;28;20188;-83
2023/08/22 00:02:59;;;;;;;5.27;4.17;;;;;;;;;;5068448;28;20234;-84
2023/08/22 00:05:26;;;;;;;3.90;3.50;;;;;;;;;;5065369;28;20184;-83
2023/08/22 00:07:53;;;;;;;4.20;3.80;;;;;;;;;;5067828;28;20263;-83
2023/08/22 00:10:19;;;;;;;4.77;3.90;;;;;;;;;;5068582;28;20635;-83
2023/08/22 00:12:45;;;;;;;7.37;4.53;;;;;;;;;;5063655;28;20230;-83
2023/08/22 00:15:13;;;;;;;5.27;3.90;;;;;;;;;;5079351;28;20655;-83
2023/08/22 00:17:43;;;;;;;4.70;3.90;;;;;;;;;;5071926;28;20223;-83
2023/08/22 00:20:11;;;;;;;4.10;3.70;;;;;;;;;;5047784;28;20854;-83
2023/08/22 00:22:37;;;;;;;4.93;3.63;;;;;;;;;;5056464;28;20196;-83
2023/08/22 00:25:04;;;;;;;4.13;3.70;;;;;;;;;;5072414;28;20204;-83
2023/08/22 00:27:30;;;;;;;5.50;3.77;;;;;;;;;;5080129;28;20218;-83
2023/08/22 00:29:57;;;;;;;5.87;3.87;;;;;;;;;;5038265;28;20218;-83
2023/08/22 00:32:26;;;;;;;3.77;3.30;;;;;;;;;;5052141;28;20214;-83
2023/08/22 00:34:52;;;;;;;4.50;3.80;;;;;;;;;;5070369;28;20185;-83
2023/08/22 00:37:19;;;;;;;5.93;3.57;;;;;;;;;;5059081;28;20198;-83
2023/08/22 00:39:46;;;;;;;4.83;3.60;;;;;;;;;;5055542;28;20608;-83
2023/08/22 00:42:13;;;;;;;4.63;3.73;;;;;;;;;;5025593;28;20194;-83
2023/08/22 00:44:39;;;;;;;5.07;3.83;;;;;;;;;;5067218;28;20184;-83
2023/08/22 00:47:05;;;;;;;6.83;3.90;;;;;;;;;;5051311;28;20333;-83
2023/08/22 00:49:32;;;;;;;4.40;4.00;;;;;;;;;;5064186;28;20227;-83
2023/08/22 00:51:59;;;;;;;4.07;3.67;;;;;;;;;;5036934;28;20187;-83
2023/08/22 00:54:26;;;;;;;4.47;3.80;;;;;;;;;;5066589;28;20200;-83
2023/08/22 00:56:53;;;;;;;5.53;3.80;;;;;;;;;;5036528;28;20186;-83
2023/08/22 00:59:20;;;;;;;3.83;3.40;;;;;;;;;;5064058;28;20197;-82
2023/08/22 01:01:47;;;;;;;5.97;4.03;;;;;;;;;;5060841;28;20193;-83
2023/08/22 01:04:13;;;;;;;5.67;3.90;;;;;;;;;;5056617;28;20229;-83
2023/08/22 01:06:42;;;;;;;4.10;3.70;;;;;;;;;;5063724;28;20177;-82
2023/08/22 01:09:12;;;;;;;4.43;3.90;;;;;;;;;;5049930;28;20218;-83
2023/08/22 01:11:40;;;;;;;5.17;3.97;;;;;;;;;;5066257;28;20205;-83
2023/08/22 01:14:08;;;;;;;6.27;3.97;;;;;;;;;;5066944;28;20188;-83
2023/08/22 01:16:35;;;;;;;4.43;3.80;;;;;;;;;;5049345;28;20182;-83
2023/08/22 01:19:04;;;;;;;4.87;4.07;;;;;;;;;;5065718;23;20226;-78
2023/08/22 01:21:34;;;;;;;6.37;4.10;;;;;;;;;;5041936;28;20183;-78
2023/08/22 01:24:00;;;;;;;5.97;3.90;;;;;;;;;;5024610;28;20185;-78
2023/08/22 01:26:26;;;;;;;4.43;3.80;;;;;;;;;;5037774;28;20184;-78
2023/08/22 01:29:06;;;;;;;4.30;3.90;;;;;;;;;;5044258;28;20197;-78
2023/08/22 01:31:34;;;;;;;5.03;3.70;;;;;;;;;;5038592;28;20177;-78
2023/08/22 01:34:14;;;;;;;4.40;4.00;;;;;;;;;;5039376;28;20181;-78
2023/08/22 01:36:41;;;;;;;6.63;4.47;;;;;;;;;;5044018;28;20288;-78
2023/08/22 01:39:07;;;;;;;4.97;4.40;;;;;;;;;;5033605;28;20207;-78
2023/08/22 01:41:37;;;;;;;4.23;3.83;;;;;;;;;;5041871;28;20170;-78
2023/08/22 01:44:03;;;;;;;5.23;4.17;;;;;;;;;;5040434;28;20597;-78
2023/08/22 01:46:31;;;;;;;4.27;3.77;;;;;;;;;;5041252;28;20183;-78
2023/08/22 01:48:59;;;;;;;4.73;4.10;;;;;;;;;;5041115;28;20216;-78
2023/08/22 01:51:25;;;;;;;4.23;3.83;;;;;;;;;;5047616;28;20185;-78
2023/08/22 01:53:51;;;;;;;5.40;4.23;;;;;;;;;;5040887;28;20179;-78
2023/08/22 01:56:17;;;;;;;4.70;4.20;;;;;;;;;;5039454;28;20179;-78
2023/08/22 01:58:43;;;;;;;4.53;3.80;;;;;;;;;;5034613;28;20205;-78
2023/08/22 02:01:11;;;;;;;5.63;4.00;;;;;;;;;;5035426;28;20194;-78
2023/08/22 02:03:38;;;;;;;5.33;4.60;;;;;;;;;;5047254;28;20213;-78
2023/08/22 02:06:04;;;;;;;6.67;4.47;;;;;;;;;;5044109;28;20280;-78
2023/08/22 02:08:31;;;;;;;5.37;4.20;;;;;;;;;;5041113;28;20234;-78
2023/08/22 02:10:57;;;;;;;5.23;4.20;;;;;;;;;;5021577;28;20294;-78
2023/08/22 02:13:23;;;;;;;5.80;4.40;;;;;;;;;;5041518;28;20622;-78
2023/08/22 02:15:49;;;;;;;5.20;4.23;;;;;;;;;;5037065;28;20194;-78
2023/08/22 02:18:19;;;;;;;5.37;4.90;;;;;;;;;;5040894;28;20186;-78
2023/08/22 02:20:45;;;;;;;4.83;4.33;;;;;;;;;;5039947;28;20182;-78
2023/08/22 02:23:11;;;;;;;5.40;4.90;;;;;;;;;;5034774;28;20186;-78
2023/08/22 02:25:38;;;;;;;5.47;4.30;;;;;;;;;;5041015;28;20300;-78
2023/08/22 02:28:04;;;;;;;5.37;4.67;;;;;;;;;;5036343;28;20759;-77
2023/08/22 02:30:30;;;;;;;7.87;4.60;;;;;;;;;;5019528;28;20267;-78
2023/08/22 02:32:57;;;;;;;7.20;4.60;;;;;;;;;;5044101;28;20191;-77
2023/08/22 02:35:23;;;;;;;6.73;4.63;;;;;;;;;;5039983;28;20182;-77
2023/08/22 02:37:51;;;;;;;7.50;4.20;;;;;;;;;;5027074;28;20746;-78
2023/08/22 02:40:17;;;;;;;6.10;4.30;;;;;;;;;;5034591;28;20202;-78
2023/08/22 02:42:43;;;;;;;6.80;4.73;;;;;;;;;;5039266;28;20194;-78
2023/08/22 02:45:10;;;;;;;6.10;4.43;;;;;;;;;;5035985;28;20197;-78
2023/08/22 02:47:36;;;;;;;6.53;4.97;;;;;;;;;;5044102;28;20184;-78
2023/08/22 02:50:02;;;;;;;5.27;4.27;;;;;;;;;;5046881;28;20233;-78
2023/08/22 02:52:29;;;;;;;4.83;4.40;;;;;;;;;;5043591;28;20211;-78
2023/08/22 02:54:55;;;;;;;6.07;4.77;;;;;;;;;;5024760;28;20287;-79
2023/08/22 02:57:22;;;;;;;5.00;4.50;;;;;;;;;;5034185;28;20213;-78
2023/08/22 02:59:48;;;;;;;8.20;6.20;;;;;;;;;;5035969;28;20898;-78
2023/08/22 03:02:14;;;;;;;8.67;7.43;;;;;;;;;;5041884;28;20186;-78
2023/08/22 03:04:40;;;;;;;8.57;7.73;;;;;;;;;;5036599;28;20668;-78
2023/08/22 03:07:09;;;;;;;8.57;7.77;;;;;;;;;;5042267;28;20236;-78
2023/08/22 03:09:37;;;;;;;11.10;7.73;;;;;;;;;;5035435;28;20211;-78
2023/08/22 03:12:03;;;;;;;7.43;6.73;;;;;;;;;;5039534;28;20189;-78
2023/08/22 03:14:29;;;;;;;10.87;6.13;;;;;;;;;;5044602;28;20194;-79
2023/08/22 03:16:55;;;;;;;7.83;5.63;;;;;;;;;;5039676;28;20174;-78
2023/08/22 03:19:21;;;;;;;6.47;5.70;;;;;;;;;;5043215;28;20292;-78
2023/08/22 03:21:51;;;;;;;5.80;5.20;;;;;;;;;;5034412;28;20237;-78
2023/08/22 03:24:18;;;;;;;5.27;4.77;;;;;;;;;;5040374;28;20182;-78
2023/08/22 03:26:44;;;;;;;6.57;4.83;;;;;;;;;;5032499;28;20598;-78
2023/08/22 03:29:11;;;;;;;7.60;5.70;;;;;;;;;;5044303;28;20205;-78
2023/08/22 03:31:39;;;;;;;8.20;6.63;;;;;;;;;;5046647;28;20269;-78
2023/08/22 03:34:05;;;;;;;9.87;6.37;;;;;;;;;;5045898;28;20676;-78
2023/08/22 03:36:33;;;;;;;8.27;6.67;;;;;;;;;;5038556;28;20271;-78
2023/08/22 03:39:02;;;;;;;7.10;6.50;;;;;;;;;;5046125;28;20214;-78
2023/08/22 03:41:28;;;;;;;7.07;6.37;;;;;;;;;;5030733;28;20186;-78
2023/08/22 03:43:57;;;;;;;6.33;5.70;;;;;;;;;;5047161;28;20201;-78
2023/08/22 03:46:23;;;;;;;7.67;6.97;;;;;;;;;;5032396;28;20275;-78
2023/08/22 03:48:50;;;;;;;9.27;6.70;;;;;;;;;;5026169;28;20301;-78
2023/08/22 03:51:16;;;;;;;8.83;7.17;;;;;;;;;;5046144;28;20235;-78
2023/08/22 03:53:43;;;;;;;7.90;7.10;;;;;;;;;;5043996;28;20220;-78
2023/08/22 03:56:09;;;;;;;8.50;7.70;;;;;;;;;;5043397;28;20661;-78
2023/08/22 03:58:36;;;;;;;8.43;7.53;;;;;;;;;;5041816;28;20255;-78
2023/08/22 04:01:04;;;;;;;7.80;7.00;;;;;;;;;;5040093;28;20256;-78
2023/08/22 04:03:31;;;;;;;8.67;6.57;;;;;;;;;;5041680;28;20267;-78
2023/08/22 04:06:03;;;;;;;6.63;6.03;;;;;;;;;;5030287;28;20211;-78
2023/08/22 04:08:29;;;;;;;9.30;6.00;;;;;;;;;;5041227;28;20668;-78
2023/08/22 04:10:56;;;;;;;7.13;5.60;;;;;;;;;;5022547;28;20585;-78
2023/08/22 04:13:22;;;;;;;8.03;5.83;;;;;;;;;;5049128;28;20194;-78
2023/08/22 04:15:49;;;;;;;7.40;5.60;;;;;;;;;;5042318;28;20274;-78
2023/08/22 04:18:15;;;;;;;6.97;6.00;;;;;;;;;;5044898;28;20220;-78
2023/08/22 04:20:45;;;;;;;6.70;5.97;;;;;;;;;;5045665;28;20213;-78
2023/08/22 04:23:12;;;;;;;6.43;5.80;;;;;;;;;;5047782;28;20187;-78
2023/08/22 04:25:38;;;;;;;6.13;5.57;;;;;;;;;;5043987;28;20268;-79
2023/08/22 04:28:04;;;;;;;6.70;5.80;;;;;;;;;;5044481;28;20194;-78
2023/08/22 04:30:31;;;;;;;6.67;5.53;;;;;;;;;;5028248;28;20209;-78
2023/08/22 04:32:57;;;;;;;6.03;5.43;;;;;;;;;;5038932;28;20197;-78
2023/08/22 04:35:24;;;;;;;7.93;6.00;;;;;;;;;;5018269;28;20182;-78
2023/08/22 04:37:53;;;;;;;5.90;5.30;;;;;;;;;;5038518;28;20189;-78
2023/08/22 04:40:19;;;;;;;6.50;5.80;;;;;;;;;;5038339;28;20262;-78
2023/08/22 04:43:06;;;;;;;6.50;5.87;;;;;;;;;;5033942;28;20201;-78
2023/08/22 04:45:33;;;;;;;6.93;5.90;;;;;;;;;;5039592;28;20183;-78
2023/08/22 04:47:59;;;;;;;6.73;6.03;;;;;;;;;;5023320;28;20665;-78
2023/08/22 04:50:25;;;;;;;7.27;5.70;;;;;;;;;;5041273;28;20198;-78
2023/08/22 04:52:51;;;;;;;6.83;5.80;;;;;;;;;;5042613;28;20267;-78
2023/08/22 04:55:17;;;;;;;6.77;6.17;;;;;;;;;;5046205;28;20252;-78
2023/08/22 04:57:44;;;;;;;6.83;5.67;;;;;;;;;;5046747;28;20170;-78
2023/08/22 05:00:10;;;;;;;7.80;6.10;;;;;;;;;;5040919;28;20221;-78
2023/08/22 05:02:36;;;;;;;6.43;5.83;;;;;;;;;;5036722;28;20266;-78
2023/08/22 05:05:03;;;;;;;6.63;6.00;;;;;;;;;;5046476;28;20178;-79
2023/08/22 05:07:30;;;;;;;6.90;6.20;;;;;;;;;;5044609;28;20281;-78
2023/08/22 05:09:57;;;;;;;7.70;6.50;;;;;;;;;;5043713;28;20213;-79
2023/08/22 05:12:24;;;;;;;6.83;6.23;;;;;;;;;;5043458;28;20266;-78
2023/08/22 05:14:50;;;;;;;7.23;6.37;;;;;;;;;;5035587;28;20691;-78
2023/08/22 05:17:16;;;;;;;8.13;6.47;;;;;;;;;;5040811;28;20257;-78
2023/08/22 05:19:42;;;;;;;8.63;6.33;;;;;;;;;;5037781;28;20214;-78
2023/08/22 05:22:08;;;;;;;8.13;6.13;;;;;;;;;;5040615;28;20182;-78
2023/08/22 05:24:35;;;;;;;10.07;6.57;;;;;;;;;;5037166;28;20224;-80
2023/08/22 05:27:02;;;;;;;6.20;5.67;;;;;;;;;;5024033;28;20396;-80
2023/08/22 05:29:28;;;;;;;7.10;5.57;;;;;;;;;;5042819;28;20211;-79
2023/08/22 05:31:55;;;;;;;6.37;5.77;;;;;;;;;;5035175;28;20182;-79
2023/08/22 05:34:21;;;;;;;6.53;5.87;;;;;;;;;;5044666;28;20209;-78
2023/08/22 05:36:47;;;;;;;7.27;6.00;;;;;;;;;;5043451;28;20178;-78
2023/08/22 05:39:13;;;;;;;6.23;5.63;;;;;;;;;;5026746;28;20198;-77
2023/08/22 05:41:40;;;;;;;6.40;5.90;;;;;;;;;;5039611;28;20189;-78
2023/08/22 05:44:06;;;;;;;7.87;6.20;;;;;;;;;;5040267;28;20189;-78
2023/08/22 05:46:33;;;;;;;7.50;6.20;;;;;;;;;;5039693;28;20653;-78
2023/08/22 05:49:01;;;;;;;7.73;6.60;;;;;;;;;;5044767;28;20230;-78
2023/08/22 05:51:27;;;;;;;6.93;6.23;;;;;;;;;;5046675;28;20187;-78
2023/08/22 05:53:54;;;;;;;10.53;6.53;;;;;;;;;;5044886;28;20182;-78
2023/08/22 05:56:20;;;;;;;7.87;7.07;;;;;;;;;;5038248;28;20610;-78
2023/08/22 05:58:46;;;;;;;9.37;6.90;;;;;;;;;;5049375;28;20206;-78
2023/08/22 06:01:13;;;;;;;7.27;6.43;;;;;;;;;;5041818;28;20194;-78
2023/08/22 06:03:40;;;;;;;7.17;6.43;;;;;;;;;;5027300;28;20710;-78
2023/08/22 06:06:06;;;;;;;8.77;7.47;;;;;;;;;;5037790;28;20198;-78
2023/08/22 06:08:33;;;;;;;7.43;6.70;;;;;;;;;;5049445;28;20210;-78
2023/08/22 06:10:59;;;;;;;10.47;7.60;;;;;;;;;;5040264;28;20209;-78
2023/08/22 06:13:26;;;;;;;10.60;7.83;;;;;;;;;;5038588;28;20206;-78
2023/08/22 06:15:53;;;;;;;8.43;7.13;;;;;;;;;;5020615;28;20201;-78
2023/08/22 06:18:21;;;;;;;8.90;7.77;;;;;;;;;;5038151;28;20217;-78
2023/08/22 06:20:47;;;;;;;10.20;9.20;;;;;;;;;;5027103;28;20205;-78
2023/08/22 06:23:14;;;;;;;9.97;8.87;;;;;;;;;;5037785;28;20209;-78
2023/08/22 06:25:40;;;;;;;9.80;8.80;;;;;;;;;;5051834;28;20239;-78
2023/08/22 06:28:06;;;;;;;10.27;9.27;;;;;;;;;;5041045;28;20189;-78
2023/08/22 06:30:33;;;;;;;10.90;8.30;;;;;;;;;;5035174;28;20326;-78
2023/08/22 06:32:59;;;;;;;8.07;7.37;;;;;;;;;;5043218;28;20279;-78
2023/08/22 06:35:28;;;;;;;11.83;8.23;;;;;;;;;;5045931;28;20205;-78
2023/08/22 06:37:54;;;;;;;12.47;7.63;;;;;;;;;;5044565;28;20206;-78
2023/08/22 06:40:22;;;;;;;12.63;8.57;;;;;;;;;;5036409;28;20206;-77
2023/08/22 06:42:49;;;;;;;9.00;7.70;;;;;;;;;;5038557;28;20190;-77
2023/08/22 06:45:23;;;;;;;9.47;8.57;;;;;;;;;;5028420;28;20202;-77
2023/08/22 06:47:50;;;;;;;11.63;8.93;;;;;;;;;;5024365;28;20620;-74
2023/08/22 06:50:17;;;;;;;10.80;9.37;;;;;;;;;;5044346;28;20272;-74
2023/08/22 06:52:43;;;;;;;11.00;9.87;;;;;;;;;;5046471;28;20212;-81
2023/08/22 06:55:09;;;;;;;16.87;10.13;;;;;;;;;;5045786;28;20213;-77
2023/08/22 06:57:35;;;;;;;16.93;10.50;;;;;;;;;;5047148;28;20727;-78
2023/08/22 07:00:13;;;;;;;11.53;10.33;;;;;;;;;;5040335;28;20202;-77
2023/08/22 07:02:40;;;;;;;11.70;10.50;;;;;;;;;;5048048;28;20263;-77
2023/08/22 07:05:07;;;;;;;11.40;10.30;;;;;;;;;;5039326;28;20198;-77
2023/08/22 07:07:33;;;;;;;12.97;10.47;;;;;;;;;;5044306;28;20187;-77
2023/08/22 07:09:59;;;;;;;10.97;9.93;;;;;;;;;;5049493;28;20300;-77
2023/08/22 07:12:25;;;;;;;10.77;9.67;;;;;;;;;;5041338;28;20197;-76
2023/08/22 07:14:51;;;;;;;10.93;9.83;;;;;;;;;;5046993;28;20187;-75
2023/08/22 07:17:18;;;;;;;10.53;9.47;;;;;;;;;;5041862;28;20188;-75
2023/08/22 07:19:44;;;;;;;11.03;10.00;;;;;;;;;;5064931;22;20293;-76
2023/08/22 07:22:10;;;;;;;12.07;10.03;;;;;;;;;;5040946;28;20196;-76
2023/08/22 07:24:36;;;;;;;11.67;10.50;;;;;;;;;;5029099;28;20183;-76
2023/08/22 07:27:02;;;;;;;10.37;9.47;;;;;;;;;;5040178;28;20181;-75
2023/08/22 07:29:28;;;;;;;10.10;9.10;;;;;;;;;;5027984;28;20210;-76
2023/08/22 07:31:58;;;;;;;10.87;9.80;;;;;;;;;;5024645;28;20219;-76
2023/08/22 07:34:24;;;;;;;10.20;9.30;;;;;;;;;;5025342;28;20870;-76
2023/08/22 07:36:51;;;;;;;9.50;8.60;;;;;;;;;;5026783;28;20186;-76
2023/08/22 07:39:18;;;;;;;11.03;9.53;;;;;;;;;;5023904;28;20208;-75
2023/08/22 07:41:44;;;;;;;10.03;9.03;;;;;;;;;;5029742;28;20211;-76
2023/08/22 07:44:10;;;;;;;11.93;10.83;;;;;;;;;;5029532;28;20206;-75
2023/08/22 07:46:36;;;;;;;10.93;9.93;;;;;;;;;;5026572;28;20195;-76
2023/08/22 07:49:02;;;;;;;11.73;10.00;;;;;;;;;;5010861;28;20725;-76
2023/08/22 07:51:29;;;;;;;11.93;10.77;;;;;;;;;;5023796;28;20221;-75
2023/08/22 07:53:55;;;;;;;11.00;9.80;;;;;;;;;;5020516;28;20220;-76
2023/08/22 07:56:21;;;;;;;10.67;9.67;;;;;;;;;;5020552;28;20188;-76
2023/08/22 07:58:48;;;;;;;12.37;11.17;;;;;;;;;;5024085;28;20562;-76
2023/08/22 08:01:14;;;;;;;11.90;10.70;;;;;;;;;;5017475;28;20193;-75
2023/08/22 08:03:41;;;;;;;13.47;10.93;;;;;;;;;;5022621;28;20183;-76
2023/08/22 08:06:07;;;;;;;13.60;12.20;;;;;;;;;;5019768;28;20289;-76
2023/08/22 08:08:33;;;;;;;12.07;10.87;;;;;;;;;;5020629;28;20514;-76
2023/08/22 08:10:59;;;;;;;12.70;11.33;;;;;;;;;;5024980;28;20206;-77
2023/08/22 08:13:25;;;;;;;11.60;10.40;;;;;;;;;;5038895;28;20186;-76
2023/08/22 08:15:51;;;;;;;10.33;9.50;;;;;;;;;;4994491;28;20582;-76
2023/08/22 08:18:17;;;;;;;10.23;9.23;;;;;;;;;;5019893;28;20268;-75
2023/08/22 08:20:44;;;;;;;10.40;9.40;;;;;;;;;;5019414;28;20697;-76
2023/08/22 08:23:10;;;;;;;10.57;8.37;;;;;;;;;;5018914;28;20194;-77
2023/08/22 08:25:37;;;;;;;11.50;9.40;;;;;;;;;;5029209;28;20182;-76
2023/08/22 08:28:05;;;;;;;12.87;9.10;;;;;;;;;;5021819;28;20202;-76
2023/08/22 08:30:31;;;;;;;10.70;9.60;;;;;;;;;;5022254;28;20226;-76
2023/08/22 08:32:57;;;;;;;10.37;9.23;;;;;;;;;;5024567;28;20198;-76
2023/08/22 08:35:23;;;;;;;10.70;9.70;;;;;;;;;;5021649;28;20205;-76
2023/08/22 08:37:51;;;;;;;12.47;11.17;;;;;;;;;;5020237;28;20290;-76
2023/08/22 08:40:18;;;;;;;12.03;10.83;;;;;;;;;;5024349;28;20230;-77
2023/08/22 08:42:44;;;;;;;12.53;10.07;;;;;;;;;;5030043;28;20182;-76
2023/08/22 08:45:11;;;;;;;10.43;9.53;;;;;;;;;;5025493;28;20187;-76
2023/08/22 08:47:39;;;;;;;13.67;10.73;;;;;;;;;;5027937;28;20183;-77
2023/08/22 08:50:06;;;;;;;11.97;10.57;;;;;;;;;;5025003;28;20225;-76
2023/08/22 08:52:33;;;;;;;10.77;9.63;;;;;;;;;;5020025;28;20551;-77
2023/08/22 08:55:00;;;;;;;11.13;10.03;;;;;;;;;;5025107;28;20179;-76
2023/08/22 08:57:29;;;;;;;14.17;11.07;;;;;;;;;;5025259;28;20242;-76
2023/08/22 08:59:55;;;;;;;11.70;10.47;;;;;;;;;;5032120;28;20202;-81
2023/08/22 09:02:22;;;;;;;10.80;9.70;;;;;;;;;;5024790;28;20197;-77
2023/08/22 09:04:49;;;;;;;12.80;10.27;;;;;;;;;;5025862;28;20182;-76
2023/08/22 09:07:18;;;;;;;10.17;9.13;;;;;;;;;;5023300;28;20186;-76
2023/08/22 09:09:45;;;;;;;12.90;10.33;;;;;;;;;;5038260;28;20230;-77
2023/08/22 09:12:13;;;;;;;9.80;8.80;;;;;;;;;;5041183;28;20178;-76
2023/08/22 09:14:47;;;;;;;9.20;8.30;;;;;;;;;;5039142;28;20775;-76
2023/08/22 09:17:14;;;;;;;11.50;8.90;;;;;;;;;;5024315;28;20214;-76
2023/08/22 09:19:41;;;;;;;9.17;8.13;;;;;;;;;;5038854;28;20221;-76
2023/08/22 09:22:08;;;;;;;9.40;8.40;;;;;;;;;;5020731;28;20995;-76
2023/08/22 09:24:34;;;;;;;8.90;8.10;;;;;;;;;;5024638;28;20278;-76
2023/08/22 09:27:03;;;;;;;8.37;7.57;;;;;;;;;;5020469;28;20309;-76
2023/08/22 09:29:30;;;;;;;9.47;8.47;;;;;;;;;;5025001;28;20237;-78
2023/08/22 09:32:05;;;;;;;8.07;7.30;;;;;;;;;;5025159;28;20753;-78
2023/08/22 09:34:32;;;;;;;9.37;8.10;;;;;;;;;;5030015;28;20178;-77
2023/08/22 09:36:59;;;;;;;12.57;10.37;;;;;;;;;;5023098;28;20179;-76
2023/08/22 09:39:25;;;;;;;10.13;8.40;;;;;;;;;;5026229;28;20198;-76
2023/08/22 09:41:53;;;;;;;9.67;7.83;;;;;;;;;;5023809;28;20179;-75
2023/08/22 09:44:22;;;;;;;10.90;7.90;;;;;;;;;;5026170;28;20178;-75
2023/08/22 09:46:49;;;;;;;8.43;7.03;;;;;;;;;;5023017;28;20623;-75
2023/08/22 09:49:15;;;;;;;9.53;7.40;;;;;;;;;;5020065;28;20296;-75
2023/08/22 09:51:44;;;;;;;7.20;6.50;;;;;;;;;;5024771;28;20235;-75
2023/08/22 09:54:10;;;;;;;7.07;6.37;;;;;;;;;;5019589;28;20175;-75
2023/08/22 09:56:37;;;;;;;7.63;6.33;;;;;;;;;;5016015;28;20187;-75
2023/08/22 09:59:04;;;;;;;8.33;7.00;;;;;;;;;;5024504;28;20195;-75
2023/08/22 10:01:33;;;;;;;8.13;6.27;;;;;;;;;;5023700;28;20620;-75
2023/08/22 10:04:03;;;;;;;7.43;6.63;;;;;;;;;;5023725;28;20565;-74
2023/08/22 10:06:30;;;;;;;10.70;6.97;;;;;;;;;;5026713;28;20191;-75
2023/08/22 10:08:57;;;;;;;6.63;5.93;;;;;;;;;;5022814;28;20229;-75
2023/08/22 10:11:23;;;;;;;7.70;5.20;;;;;;;;;;5025832;28;20202;-76
2023/08/22 10:13:50;;;;;;;5.80;4.70;;;;;;;;;;5027157;28;20179;-76
2023/08/22 10:16:16;;;;;;;5.10;4.40;;;;;;;;;;5023713;28;20220;-74
2023/08/22 10:18:42;;;;;;;4.77;4.37;;;;;;;;;;5023549;28;20677;-75
2023/08/22 10:21:08;;;;;;;6.83;5.03;;;;;;;;;;5022687;28;20193;-77
2023/08/22 10:23:54;;;;;;;8.87;5.10;;;;;;;;;;5028933;28;20186;-75
2023/08/22 10:26:20;;;;;;;6.00;5.20;;;;;;;;;;5039280;28;20686;-76
2023/08/22 10:29:05;;;;;;;10.20;8.30;;;;;;;;;;5030541;28;20221;-75
2023/08/22 10:31:31;;;;;;;6.10;5.33;;;;;;;;;;5029997;28;20309;-75
2023/08/22 10:34:02;;;;;;;5.97;4.40;;;;;;;;;;5029490;28;20182;-74
2023/08/22 10:36:28;;;;;;;6.30;4.00;;;;;;;;;;5027103;28;20759;-76
2023/08/22 10:39:00;;;;;;;8.70;4.10;;;;;;;;;;5023902;28;20198;-74
2023/08/22 10:41:44;;;;;;;6.40;3.90;;;;;;;;;;5027616;28;20183;-73
2023/08/22 10:44:30;;;;;;;3.83;3.43;;;;;;;;;;5025371;28;20193;-74
2023/08/22 10:47:06;;;;;;;4.23;3.50;;;;;;;;;;5025025;28;20227;-74
2023/08/22 10:49:32;;;;;;;4.20;3.60;;;;;;;;;;5023811;28;20210;-74
2023/08/22 10:52:08;;;;;;;4.83;3.40;;;;;;;;;;5030396;28;20205;-74
2023/08/22 10:54:54;;;;;;;5.13;3.20;;;;;;;;;;5031932;28;20189;-75
2023/08/22 10:57:20;;;;;;;5.73;3.20;;;;;;;;;;5030631;28;20683;-74
2023/08/22 10:59:53;;;;;;;5.80;3.00;;;;;;;;;;5026665;28;22056;-74
2023/08/22 11:02:19;;;;;;;7.80;3.77;;;;;;;;;;5030675;28;20186;-74
2023/08/22 11:04:46;;;;;;;3.70;3.40;;;;;;;;;;5031662;28;20179;-74
2023/08/22 11:07:12;;;;;;;6.00;3.60;;;;;;;;;;5024692;28;20185;-74
2023/08/22 11:09:39;;;;;;;6.80;3.63;;;;;;;;;;5027426;28;20298;-74
2023/08/22 11:12:17;;;;;;;8.30;3.70;;;;;;;;;;5026021;28;20190;-74
2023/08/22 11:14:46;;;;;;;6.67;3.33;;;;;;;;;;5027796;28;20552;-74
2023/08/22 11:17:15;;;;;;;5.77;2.90;;;;;;;;;;5028009;28;20221;-74
2023/08/22 11:19:42;;;;;;;3.63;2.60;;;;;;;;;;5027980;28;20218;-74
2023/08/22 11:22:09;;;;;;;3.13;2.60;;;;;;;;;;5028035;28;20184;-74
2023/08/22 11:24:35;;;;;;;7.23;3.50;;;;;;;;;;5039637;28;20198;-74
2023/08/22 11:27:04;;;;;;;3.80;3.37;;;;;;;;;;5024604;28;20181;-74
2023/08/22 11:29:40;;;;;;;5.00;3.20;;;;;;;;;;5023406;28;20210;-74
2023/08/22 11:32:19;;;;;;;7.23;3.37;;;;;;;;;;5028966;28;20287;-75
2023/08/22 11:34:46;;;;;;;7.47;3.80;;;;;;;;;;5031642;28;20668;-74
2023/08/22 11:37:12;;;;;;;5.03;3.30;;;;;;;;;;5028417;28;20435;-74
2023/08/22 11:39:38;;;;;;;4.97;3.50;;;;;;;;;;5028208;28;20214;-74
2023/08/22 11:42:05;;;;;;;5.17;4.17;;;;;;;;;;5023235;28;20214;-74
2023/08/22 11:44:31;;;;;;;5.47;4.10;;;;;;;;;;5031565;28;20209;-75
2023/08/22 11:46:58;;;;;;;4.67;4.13;;;;;;;;;;5029894;28;20195;-74
2023/08/22 11:49:53;;;;;;;5.60;4.00;;;;;;;;;;5016796;28;20218;-74
2023/08/22 11:52:19;;;;;;;5.33;3.97;;;;;;;;;;5022531;28;20191;-73
2023/08/22 11:54:45;;;;;;;4.90;4.47;;;;;;;;;;5028531;28;20553;-75
2023/08/22 11:57:12;;;;;;;5.23;4.10;;;;;;;;;;5030958;28;20184;-74
2023/08/22 11:59:42;;;;;;;5.57;3.77;;;;;;;;;;5046427;28;20268;-74
2023/08/22 12:02:11;;;;;;;4.30;3.90;;;;;;;;;;5029707;28;20190;-80
2023/08/22 12:04:41;;;;;;;7.70;3.93;;;;;;;;;;5025177;28;20714;-74
2023/08/22 12:07:07;;;;;;;3.83;3.33;;;;;;;;;;5029775;28;20205;-74
2023/08/22 12:09:33;;;;;;;4.77;3.83;;;;;;;;;;5030968;28;20202;-73
2023/08/22 12:12:13;;;;;;;6.97;3.47;;;;;;;;;;5030768;28;20186;-76
2023/08/22 12:14:40;;;;;;;4.30;3.33;;;;;;;;;;5027434;28;20647;-76
2023/08/22 12:17:07;;;;;;;7.90;3.37;;;;;;;;;;5026003;28;20238;-76
2023/08/22 12:19:33;;;;;;;3.73;3.43;;;;;;;;;;5028984;28;20212;-76
2023/08/22 12:22:00;;;;;;;3.60;3.30;;;;;;;;;;5030500;28;20186;-76
2023/08/22 12:24:26;;;;;;;6.77;3.60;;;;;;;;;;5021837;28;20185;-76
2023/08/22 12:26:52;;;;;;;5.07;3.20;;;;;;;;;;5029337;28;20263;-76
2023/08/22 12:29:18;;;;;;;5.70;3.07;;;;;;;;;;5028298;28;20277;-76
2023/08/22 12:31:44;;;;;;;5.67;3.17;;;;;;;;;;5023952;28;20576;-76
2023/08/22 12:34:11;;;;;;;5.90;3.10;;;;;;;;;;5029070;28;20518;-76
2023/08/22 12:36:37;;;;;;;6.83;3.30;;;;;;;;;;5030552;28;20213;-76
2023/08/22 12:39:03;;;;;;;5.00;2.90;;;;;;;;;;5030316;28;20290;-76
2023/08/22 12:41:31;;;;;;;4.67;3.10;;;;;;;;;;5029528;28;20655;-76
2023/08/22 12:43:57;;;;;;;3.27;2.97;;;;;;;;;;5030784;28;20515;-76
2023/08/22 12:46:23;;;;;;;4.90;3.07;;;;;;;;;;5029303;28;20722;-76
2023/08/22 12:48:49;;;;;;;3.13;2.80;;;;;;;;;;5029808;28;20208;-76
2023/08/22 12:51:15;;;;;;;4.07;2.60;;;;;;;;;;5029665;28;20217;-76
2023/08/22 12:53:41;;;;;;;4.10;2.77;;;;;;;;;;5028861;28;20266;-76
2023/08/22 12:56:08;;;;;;;3.20;2.73;;;;;;;;;;5012157;28;20191;-76
2023/08/22 12:58:34;;;;;;;3.57;2.93;;;;;;;;;;5023572;28;20190;-76
2023/08/22 13:01:00;;;;;;;4.93;3.23;;;;;;;;;;5026876;28;20183;-76
2023/08/22 13:03:27;;;;;;;4.43;3.23;;;;;;;;;;5025535;28;20245;-76
2023/08/22 13:05:53;;;;;;;3.93;2.97;;;;;;;;;;5029183;28;20200;-76
2023/08/22 13:08:19;;;;;;;4.30;2.73;;;;;;;;;;5023925;28;20260;-76
2023/08/22 13:10:45;;;;;;;4.63;2.83;;;;;;;;;;5023278;28;20232;-76
2023/08/22 13:13:11;;;;;;;3.80;2.93;;;;;;;;;;5025990;28;20543;-76
2023/08/22 13:15:38;;;;;;;3.57;2.70;;;;;;;;;;5023275;28;20172;-76
2023/08/22 13:18:04;;;;;;;4.73;2.80;;;;;;;;;;5028965;28;20244;-76
2023/08/22 13:20:30;;;;;;;4.03;2.83;;;;;;;;;;5039176;22;20227;-73
2023/08/22 13:22:56;;;;;;;3.63;2.60;;;;;;;;;;5039521;28;20186;-73
2023/08/22 13:25:22;;;;;;;2.97;2.67;;;;;;;;;;5063015;28;20217;-73
2023/08/22 13:27:49;;;;;;;4.50;2.60;;;;;;;;;;5049165;28;20181;-73
2023/08/22 13:30:15;;;;;;;3.13;2.50;;;;;;;;;;5040468;28;20219;-73
2023/08/22 13:32:41;;;;;;;3.17;2.50;;;;;;;;;;5016576;28;20174;-74
2023/08/22 13:35:14;;;;;;;3.38;2.47;;;;;;;;;;5012993;28;20209;-74
2023/08/22 13:37:40;;;;;;;3.30;2.30;;;;;;;;;;5015528;28;20186;-74
2023/08/22 13:40:07;;;;;;;2.85;2.40;;;;;;;;;;5012787;28;20211;-76
2023/08/22 13:42:33;;;;;;;2.45;2.25;;;;;;;;;;5020647;28;20269;-76
2023/08/22 13:44:59;;;;;;;2.63;2.28;;;;;;;;;;5021346;28;20196;-76
2023/08/22 13:47:25;;;;;;;3.60;2.70;;;;;;;;;;5020724;28;20667;-77
2023/08/22 13:49:52;;;;;;;3.90;2.50;;;;;;;;;;5018977;28;20707;-78
2023/08/22 13:52:18;;;;;;;3.03;2.50;;;;;;;;;;5016304;28;20180;-77
2023/08/22 13:54:44;;;;;;;6.57;2.53;;;;;;;;;;5013734;28;20179;-76
2023/08/22 13:57:11;;;;;;;3.80;2.70;;;;;;;;;;5017489;28;20186;-78
2023/08/22 13:59:37;;;;;;;3.63;2.47;;;;;;;;;;5027273;28;20187;-78
2023/08/22 14:02:04;;;;;;;2.63;2.30;;;;;;;;;;5024838;28;21769;-77
2023/08/22 14:04:31;;;;;;;5.30;2.60;;;;;;;;;;5022724;28;20191;-77
2023/08/22 14:06:57;;;;;;;3.27;2.37;;;;;;;;;;5014842;28;20190;-76
2023/08/22 14:09:23;;;;;;;2.72;2.30;;;;;;;;;;5024185;28;20185;-76
2023/08/22 14:11:50;;;;;;;2.80;2.30;;;;;;;;;;5015072;28;20208;-77
2023/08/22 14:14:16;;;;;;;3.33;2.63;;;;;;;;;;5018652;28;20217;-78
2023/08/22 14:16:42;;;;;;;3.57;2.60;;;;;;;;;;5017914;28;20259;-76
2023/08/22 14:19:08;;;;;;;3.20;2.33;;;;;;;;;;5014959;28;20197;-77
2023/08/22 14:21:34;;;;;;;3.10;2.50;;;;;;;;;;5026798;28;20226;-77
2023/08/22 14:24:01;;;;;;;2.73;2.50;;;;;;;;;;5020345;28;20192;-77
2023/08/22 14:26:27;;;;;;;4.23;2.40;;;;;;;;;;5002738;28;20669;-77
2023/08/22 14:28:53;;;;;;;3.80;2.37;;;;;;;;;;5042230;28;20205;-77
2023/08/22 14:31:19;;;;;;;5.27;2.40;;;;;;;;;;5021716;28;20219;-77
2023/08/22 14:33:46;;;;;;;4.30;2.00;;;;;;;;;;5019301;28;20229;-77
2023/08/22 14:36:12;;;;;;;3.88;2.30;;;;;;;;;;5017690;28;20228;-77
2023/08/22 14:38:38;;;;;;;3.22;2.28;;;;;;;;;;5014872;28;20213;-76